Whiteman Air Force Base
KSZL : now visible

Airfield :











YOU CAN JOIN US ON...

 
LOGIN :

Register | Disclaimer

   EN    FR    IT 

 









Legend :    VFR   Marginal VFR   IFR   Intensive IFR   Very Intensive IFR
Visi :
Ceiling :
>= 8 km
>= 3000ft
5 to 8 km
1000 to 3000 ft
1500m to 5 km
500 to 1000 ft
800 to 1500m
200 to 500 ft
< 800m
< 200 ft
Symbols :   Thunderstorms  Fog  Heavy snow  Heavy precipitations  Wind > 20 kt






- Airport Elevation : 870 ft


KSZL - Whiteman Air Force Base

CURRENT METAR :
  • 182059Z VRB04KT 10SM SCT110 13/05 A2996 RMK AO2A RAB1958E03 SLP149 P0000 60003 T01270054 57014 $

EXPIRED METARs :
  • 181958Z 20009KT 10SM BKN027 BKN034 BKN200 10/06 A2997 RMK AO2A RAB44 SLP153 P0003 T01030063 $
  • 181856Z 20007KT 10SM BKN034 12/06 A2998 RMK AO2A SLP156 P0001 T01150060 $

TAF AMD TAF KSZL
Valid from the 18 at 19:00 until the 20 at 01:00 UTC


181945Z 1819/2001 VRB06KT 9999 BKN025 OVC050 QNH2995INS
TEMPO 1819/1822 8000 -RA OVC025
BECMG 1900/1901 28009KT 9999 FEW050 QNH2994INS
BECMG 1917/1918 28015G25KT 9999 BKN050 QNH2993INS TX16/1918Z TN04/1911Z
KZKC FIR / North America



MET'MAP, your aeronautical weather chart ! - Copyright ORBIFLY December 2007 - Disclaimer

ORBIFLY MET'MAP TEAM :

Programming & Development : Alexandra Zaïnal
Concept & original design : Baudouin d'Aumeries
Assistance for programming : Marc-Olivier Méhu
Technical & hardware support : Manuel Goepfert

Contact : metmap@orbifly.com




SOURCES & CREDITS :

   NOAA       Earth
Advisory